createdAt,value
2022-12-18T00:00:09.301Z,-4.88
2022-12-18T00:02:37.845Z,-4.86
2022-12-18T00:05:06.847Z,-4.81
2022-12-18T00:07:35.347Z,-4.78
2022-12-18T00:10:04.181Z,-4.82
2022-12-18T00:12:32.605Z,-4.88
2022-12-18T00:15:01.078Z,-5.02
2022-12-18T00:17:29.585Z,-5.10
2022-12-18T00:19:58.005Z,-5.18
2022-12-18T00:22:26.382Z,-5.15
2022-12-18T00:24:54.797Z,-5.17
2022-12-18T00:27:23.295Z,-5.16
2022-12-18T00:29:51.809Z,-5.17
2022-12-18T00:32:20.462Z,-5.17
2022-12-18T00:34:49.016Z,-5.15
2022-12-18T00:37:20.288Z,-5.17
2022-12-18T00:39:51.481Z,-5.17
2022-12-18T00:42:37.644Z,-5.20
2022-12-18T00:45:12.055Z,-5.25
2022-12-18T00:47:41.676Z,-5.22
2022-12-18T00:50:11.257Z,-5.19
2022-12-18T00:52:42.373Z,-5.17
2022-12-18T00:55:11.155Z,-5.19
2022-12-18T00:57:39.753Z,-5.17
2022-12-18T01:00:10.824Z,-5.18
2022-12-18T01:02:39.455Z,-5.23
2022-12-18T01:05:08.653Z,-5.24
2022-12-18T01:07:37.223Z,-5.28
2022-12-18T01:10:06.663Z,-5.28
2022-12-18T01:12:35.720Z,-5.33
2022-12-18T01:15:04.500Z,-5.41
2022-12-18T01:17:32.911Z,-5.54
2022-12-18T01:20:01.404Z,-5.50
2022-12-18T01:22:30.003Z,-5.52
2022-12-18T01:24:58.428Z,-5.47
2022-12-18T01:27:26.935Z,-5.67
2022-12-18T01:29:55.591Z,-5.70
2022-12-18T01:32:24.444Z,-5.70
2022-12-18T01:34:52.898Z,-5.68
2022-12-18T01:37:21.328Z,-5.67
2022-12-18T01:39:51.004Z,-5.70
2022-12-18T01:42:19.564Z,-5.71
2022-12-18T01:45:09.173Z,-5.68
2022-12-18T01:48:01.391Z,-5.71
2022-12-18T01:50:43.006Z,-5.68
2022-12-18T01:53:24.248Z,-5.67
2022-12-18T01:56:00.255Z,-5.73
2022-12-18T01:59:03.986Z,-5.71
2022-12-18T02:01:34.226Z,-5.65
2022-12-18T02:04:26.331Z,-5.68
2022-12-18T02:07:34.965Z,-5.73
2022-12-18T02:10:30.005Z,-5.79
2022-12-18T02:13:16.593Z,-5.78
2022-12-18T02:16:39.933Z,-5.84
2022-12-18T02:19:45.407Z,-5.92
2022-12-18T02:22:41.871Z,-5.94
2022-12-18T02:25:39.934Z,-5.93
2022-12-18T02:28:13.644Z,-5.86
2022-12-18T02:30:43.379Z,-5.78
2022-12-18T02:33:14.398Z,-5.82
2022-12-18T02:35:44.084Z,-5.86
2022-12-18T02:38:12.717Z,-5.91
2022-12-18T02:40:42.811Z,-5.96
2022-12-18T02:43:13.978Z,-5.92
2022-12-18T02:45:58.964Z,-5.88
2022-12-18T02:48:35.127Z,-5.90
2022-12-18T02:51:26.562Z,-5.92
2022-12-18T02:54:08.589Z,-5.95
2022-12-18T02:56:53.562Z,-5.94
2022-12-18T02:59:31.828Z,-5.86
2022-12-18T03:02:24.896Z,-5.73
2022-12-18T03:05:14.620Z,-5.68
2022-12-18T03:08:09.937Z,-5.67
2022-12-18T03:10:45.089Z,-5.53
2022-12-18T03:13:24.182Z,-5.48
2022-12-18T03:15:55.351Z,-5.54
2022-12-18T03:18:29.847Z,-5.56
2022-12-18T03:21:02.838Z,-5.60
2022-12-18T03:23:39.959Z,-5.63
2022-12-18T03:26:13.356Z,-5.71
2022-12-18T03:28:52.850Z,-5.77
2022-12-18T03:31:25.700Z,-5.84
2022-12-18T03:33:58.208Z,-5.88
2022-12-18T03:36:26.949Z,-5.77
2022-12-18T03:38:59.348Z,-5.78
2022-12-18T03:41:47.282Z,-5.84
2022-12-18T03:44:46.383Z,-5.88
2022-12-18T03:47:49.181Z,-5.94
2022-12-18T03:50:48.976Z,-5.95
2022-12-18T03:53:28.901Z,-5.92
2022-12-18T03:55:59.192Z,-5.90
2022-12-18T03:58:29.534Z,-5.95
2022-12-18T04:01:02.793Z,-5.96
2022-12-18T04:03:36.261Z,-5.99
2022-12-18T04:06:05.452Z,-5.99
2022-12-18T04:08:35.793Z,-5.95
2022-12-18T04:11:05.317Z,-5.95
2022-12-18T04:13:41.467Z,-5.94
2022-12-18T04:16:10.610Z,-5.95
2022-12-18T04:18:39.032Z,-5.97
2022-12-18T04:21:07.759Z,-6.06
2022-12-18T04:23:36.705Z,-6.08
2022-12-18T04:26:05.482Z,-6.10
2022-12-18T04:28:33.887Z,-6.15
2022-12-18T04:31:02.440Z,-6.17
2022-12-18T04:33:31.178Z,-6.19
2022-12-18T04:35:59.923Z,-6.18
2022-12-18T04:38:28.316Z,-6.17
2022-12-18T04:40:56.734Z,-6.07
2022-12-18T04:43:25.247Z,-6.09
2022-12-18T04:45:53.920Z,-6.19
2022-12-18T04:48:23.150Z,-6.23
2022-12-18T04:50:51.630Z,-6.31
2022-12-18T04:53:20.058Z,-6.33
2022-12-18T04:55:48.552Z,-6.35
2022-12-18T04:58:17.046Z,-6.47
2022-12-18T05:00:45.562Z,-6.55
2022-12-18T05:03:14.037Z,-6.61
2022-12-18T05:05:42.510Z,-6.57
2022-12-18T05:08:10.939Z,-6.63
2022-12-18T05:10:39.461Z,-6.59
2022-12-18T05:13:07.846Z,-6.53
2022-12-18T05:15:36.768Z,-6.53
2022-12-18T05:18:05.748Z,-6.48
2022-12-18T05:20:41.646Z,-6.46
2022-12-18T05:23:10.191Z,-6.42
2022-12-18T05:25:38.862Z,-6.42
2022-12-18T05:28:07.773Z,-6.40
2022-12-18T05:30:36.509Z,-6.38
2022-12-18T05:33:05.118Z,-6.43
2022-12-18T05:35:33.648Z,-6.43
2022-12-18T05:38:02.132Z,-6.42
2022-12-18T05:40:30.667Z,-6.44
2022-12-18T05:43:00.134Z,-6.48
2022-12-18T05:45:28.720Z,-6.52
2022-12-18T05:47:57.203Z,-6.60
2022-12-18T05:50:25.936Z,-6.66
2022-12-18T05:52:54.531Z,-6.65
2022-12-18T05:55:23.311Z,-6.64
2022-12-18T05:57:52.399Z,-6.62
2022-12-18T06:00:21.038Z,-6.60
2022-12-18T06:02:50.394Z,-6.58
2022-12-18T06:05:18.803Z,-6.64
2022-12-18T06:07:47.602Z,-6.69
2022-12-18T06:10:16.081Z,-6.65
2022-12-18T06:12:45.296Z,-6.65
2022-12-18T06:15:14.269Z,-6.59
2022-12-18T06:17:42.910Z,-6.51
2022-12-18T06:20:11.830Z,-6.47
2022-12-18T06:22:40.549Z,-6.41
2022-12-18T06:25:09.899Z,-6.40
2022-12-18T06:27:38.748Z,-6.40
2022-12-18T06:30:08.538Z,-6.42
2022-12-18T06:32:37.289Z,-6.40
2022-12-18T06:35:06.138Z,-6.39
2022-12-18T06:37:34.924Z,-6.36
2022-12-18T06:40:03.507Z,-6.32
2022-12-18T06:42:33.104Z,-6.28
2022-12-18T06:45:01.761Z,-6.20
2022-12-18T06:47:30.385Z,-6.20
2022-12-18T06:49:59.035Z,-6.19
2022-12-18T06:52:27.561Z,-6.30
2022-12-18T06:54:56.302Z,-6.36
2022-12-18T06:57:24.801Z,-6.37
2022-12-18T06:59:53.799Z,-6.42
2022-12-18T07:02:22.473Z,-6.39
2022-12-18T07:04:51.409Z,-6.35
2022-12-18T07:07:20.018Z,-6.28
2022-12-18T07:09:48.660Z,-6.22
2022-12-18T07:12:17.225Z,-6.14
2022-12-18T07:14:45.947Z,-6.26
2022-12-18T07:17:14.582Z,-6.25
2022-12-18T07:19:43.208Z,-6.24
2022-12-18T07:22:11.970Z,-6.61
2022-12-18T07:24:40.458Z,-6.50
2022-12-18T07:27:08.831Z,-6.61
2022-12-18T07:29:38.817Z,-6.74
2022-12-18T07:32:08.782Z,-6.82
2022-12-18T07:34:37.552Z,-6.76
2022-12-18T07:37:06.158Z,-6.74
2022-12-18T07:39:34.542Z,-6.78
2022-12-18T07:42:20.251Z,-6.74
2022-12-18T07:44:49.986Z,-6.65
2022-12-18T07:47:18.262Z,-6.62
2022-12-18T07:49:46.860Z,-6.45
2022-12-18T07:52:15.678Z,-6.51
2022-12-18T07:54:43.947Z,-6.58
2022-12-18T07:57:27.384Z,-6.54
2022-12-18T08:00:00.683Z,-6.57
2022-12-18T08:02:29.295Z,-6.50
2022-12-18T08:04:57.815Z,-6.46
2022-12-18T08:07:26.282Z,-6.45
2022-12-18T08:09:54.738Z,-6.38
2022-12-18T08:12:23.194Z,-6.34
2022-12-18T08:14:51.617Z,-6.30
2022-12-18T08:17:21.302Z,-6.31
2022-12-18T08:19:49.798Z,-6.34
2022-12-18T08:22:18.336Z,-6.38
2022-12-18T08:24:47.139Z,-6.42
2022-12-18T08:27:31.233Z,-6.49
2022-12-18T08:30:00.317Z,-6.50
2022-12-18T08:32:32.571Z,-6.48
2022-12-18T08:35:01.346Z,-6.48
2022-12-18T08:37:30.023Z,-6.44
2022-12-18T08:39:58.529Z,-6.40
2022-12-18T08:42:44.293Z,-6.30
2022-12-18T08:45:18.602Z,-6.31
2022-12-18T08:47:47.074Z,-6.38
2022-12-18T08:50:17.906Z,-6.47
2022-12-18T08:52:46.547Z,-6.49
2022-12-18T08:55:15.723Z,-6.39
2022-12-18T08:57:44.331Z,-6.42
2022-12-18T09:00:14.221Z,-6.46
2022-12-18T09:02:43.816Z,-6.44
2022-12-18T09:05:12.512Z,-6.34
2022-12-18T09:07:41.020Z,-6.34
2022-12-18T09:10:09.843Z,-6.27
2022-12-18T09:12:40.580Z,-6.20
2022-12-18T09:15:09.433Z,-6.21
2022-12-18T09:17:37.800Z,-6.21
2022-12-18T09:20:07.045Z,-6.14
2022-12-18T09:22:35.582Z,-6.10
2022-12-18T09:25:04.358Z,-6.18
2022-12-18T09:27:33.026Z,-6.20
2022-12-18T09:30:01.670Z,-6.26
2022-12-18T09:32:30.419Z,-6.14
2022-12-18T09:34:58.914Z,-6.09
2022-12-18T09:37:27.499Z,-5.95
2022-12-18T09:39:56.023Z,-5.93
2022-12-18T09:42:24.940Z,-5.92
2022-12-18T09:44:56.607Z,-5.98
2022-12-18T09:47:33.823Z,-5.95
2022-12-18T09:50:11.629Z,-5.97
2022-12-18T09:52:54.636Z,-5.96
2022-12-18T09:55:37.141Z,-5.86
2022-12-18T09:58:36.019Z,-5.76
2022-12-18T10:01:04.584Z,-5.68
2022-12-18T10:03:34.075Z,-5.64
2022-12-18T10:06:08.675Z,-5.54
2022-12-18T10:09:10.496Z,-5.46
2022-12-18T10:12:26.527Z,-5.36
2022-12-18T10:15:28.158Z,-5.31
2022-12-18T10:18:21.841Z,-5.31
2022-12-18T10:20:58.319Z,-5.30
2022-12-18T10:23:49.583Z,-5.23
2022-12-18T10:26:18.055Z,-5.19
2022-12-18T10:28:47.122Z,-5.16
2022-12-18T10:31:24.330Z,-5.14
2022-12-18T10:33:53.865Z,-4.97
2022-12-18T10:36:26.200Z,-4.98
2022-12-18T10:38:55.552Z,-4.98
2022-12-18T10:41:26.938Z,-4.96
2022-12-18T10:44:28.173Z,-4.93
2022-12-18T10:47:10.201Z,-4.93
2022-12-18T10:49:52.850Z,-4.95
2022-12-18T10:52:25.797Z,-5.01
2022-12-18T10:55:02.784Z,-4.94
2022-12-18T10:57:32.798Z,-4.97
2022-12-18T11:00:21.683Z,-4.93
2022-12-18T11:02:50.581Z,-4.91
2022-12-18T11:05:45.627Z,-4.75
2022-12-18T11:08:26.513Z,-4.71
2022-12-18T11:10:55.457Z,-4.63
2022-12-18T11:13:27.590Z,-4.65
2022-12-18T11:15:56.655Z,-4.61
2022-12-18T11:18:34.255Z,-4.56
2022-12-18T11:21:14.716Z,-4.55
2022-12-18T11:23:55.506Z,-4.56
2022-12-18T11:26:24.502Z,-4.57
2022-12-18T11:29:12.001Z,-4.64
2022-12-18T11:31:40.563Z,-4.59
2022-12-18T11:34:29.028Z,-4.52
2022-12-18T11:36:58.401Z,-4.48
2022-12-18T11:39:52.491Z,-4.46
2022-12-18T11:42:38.327Z,-4.33
2022-12-18T11:45:15.436Z,-4.29
2022-12-18T11:47:55.537Z,-4.20
2022-12-18T11:50:28.837Z,-4.10
2022-12-18T11:53:01.513Z,-4.03
2022-12-18T11:55:56.918Z,-4.04
2022-12-18T11:59:06.944Z,-4.06
2022-12-18T12:01:41.957Z,-4.01
2022-12-18T12:04:43.137Z,-3.98
2022-12-18T12:07:20.120Z,-3.85
2022-12-18T12:10:29.202Z,-3.81
2022-12-18T12:13:25.327Z,-3.83
2022-12-18T12:15:56.801Z,-3.76
2022-12-18T12:18:44.265Z,-3.80
2022-12-18T12:21:29.459Z,-3.79
2022-12-18T12:24:18.439Z,-3.73
2022-12-18T12:27:31.250Z,-3.68
2022-12-18T12:30:11.987Z,-3.61
2022-12-18T12:33:03.754Z,-3.71
2022-12-18T12:36:53.626Z,-3.66
2022-12-18T12:39:30.212Z,-3.78
2022-12-18T12:42:16.872Z,-3.85
2022-12-18T12:44:57.887Z,-3.76
2022-12-18T12:47:33.219Z,-3.66
2022-12-18T12:50:05.906Z,-3.72
2022-12-18T12:52:57.979Z,-3.66
2022-12-18T12:55:31.372Z,-3.72
2022-12-18T12:58:32.413Z,-3.81
2022-12-18T13:01:42.843Z,-3.79
2022-12-18T13:04:14.734Z,-3.68
2022-12-18T13:07:07.995Z,-3.64
2022-12-18T13:10:17.809Z,-3.71
2022-12-18T13:13:10.564Z,-3.64
2022-12-18T13:16:11.639Z,-3.57
2022-12-18T13:18:40.570Z,-3.52
2022-12-18T13:21:28.118Z,-3.51
2022-12-18T13:23:57.320Z,-3.38
2022-12-18T13:26:29.119Z,-3.43
2022-12-18T13:28:59.667Z,-3.50
2022-12-18T13:31:43.479Z,-3.46
2022-12-18T13:34:28.309Z,-3.33
2022-12-18T13:37:33.812Z,-3.30
2022-12-18T13:40:02.773Z,-3.33
2022-12-18T13:42:58.575Z,-3.30
2022-12-18T13:45:44.743Z,-3.32
2022-12-18T13:48:24.428Z,-3.31
2022-12-18T13:51:13.075Z,-3.21
2022-12-18T13:53:48.933Z,-3.21
2022-12-18T13:56:25.369Z,-3.19
2022-12-18T13:59:36.973Z,-3.22
2022-12-18T14:02:40.667Z,-3.29
2022-12-18T14:05:29.639Z,-3.32
2022-12-18T14:08:12.454Z,-3.34
2022-12-18T14:10:48.386Z,-3.36
2022-12-18T14:13:30.779Z,-3.32
2022-12-18T14:16:04.129Z,-3.40
2022-12-18T14:18:48.778Z,-3.33
2022-12-18T14:21:30.401Z,-3.26
2022-12-18T14:24:23.620Z,-3.44
2022-12-18T14:26:53.134Z,-3.39
2022-12-18T14:29:21.735Z,-3.44
2022-12-18T14:32:17.301Z,-3.40
2022-12-18T14:34:56.750Z,-3.52
2022-12-18T14:37:28.403Z,-3.52
2022-12-18T14:40:11.360Z,-3.57
2022-12-18T14:42:40.065Z,-3.53
2022-12-18T14:45:47.485Z,-3.60
2022-12-18T14:48:23.584Z,-3.50
2022-12-18T14:51:23.411Z,-3.60
2022-12-18T14:53:58.789Z,-3.58
2022-12-18T14:56:36.994Z,-3.58
2022-12-18T14:59:26.616Z,-3.63
2022-12-18T15:02:13.532Z,-3.53
2022-12-18T15:04:45.045Z,-3.65
2022-12-18T15:07:23.679Z,-3.73
2022-12-18T15:10:04.034Z,-3.70
2022-12-18T15:12:58.852Z,-3.70
2022-12-18T15:15:36.962Z,-3.69
2022-12-18T15:18:11.287Z,-3.66
2022-12-18T15:20:58.326Z,-3.67
2022-12-18T15:23:41.380Z,-3.62
2022-12-18T15:26:12.861Z,-3.61
2022-12-18T15:28:56.357Z,-3.60
2022-12-18T15:31:35.878Z,-3.62
2022-12-18T15:34:24.049Z,-3.60
2022-12-18T15:36:53.289Z,-3.60
2022-12-18T15:39:21.808Z,-3.59
2022-12-18T15:42:07.602Z,-3.56
2022-12-18T15:44:36.285Z,-3.61
2022-12-18T15:47:04.779Z,-3.70
2022-12-18T15:49:33.974Z,-3.65
2022-12-18T15:52:04.148Z,-3.67
2022-12-18T15:54:49.983Z,-3.62
2022-12-18T15:57:27.582Z,-3.65
2022-12-18T15:59:59.390Z,-3.61
2022-12-18T16:02:29.511Z,-3.61
2022-12-18T16:04:58.199Z,-3.56
2022-12-18T16:07:30.303Z,-3.64
2022-12-18T16:10:00.293Z,-3.74
2022-12-18T16:12:30.861Z,-3.83
2022-12-18T16:14:59.408Z,-3.86
2022-12-18T16:17:27.952Z,-3.84
2022-12-18T16:19:56.503Z,-3.87
2022-12-18T16:22:30.501Z,-3.93
2022-12-18T16:24:59.840Z,-3.92
2022-12-18T16:27:28.637Z,-3.95
2022-12-18T16:29:57.139Z,-3.98
2022-12-18T16:32:25.591Z,-3.92
2022-12-18T16:34:54.045Z,-3.98
2022-12-18T16:37:22.576Z,-4.00
2022-12-18T16:39:51.010Z,-4.00
2022-12-18T16:42:21.184Z,-3.95
2022-12-18T16:44:50.765Z,-3.91
2022-12-18T16:47:19.908Z,-3.89
2022-12-18T16:49:51.783Z,-3.82
2022-12-18T16:52:20.670Z,-3.79
2022-12-18T16:54:49.278Z,-3.76
2022-12-18T16:57:21.565Z,-3.73
2022-12-18T16:59:53.925Z,-3.87
2022-12-18T17:02:28.479Z,-3.83
2022-12-18T17:04:59.652Z,-3.87
2022-12-18T17:07:29.221Z,-3.97
2022-12-18T17:10:00.480Z,-3.94
2022-12-18T17:12:29.012Z,-3.93
2022-12-18T17:14:57.551Z,-3.94
2022-12-18T17:17:26.048Z,-3.93
2022-12-18T17:19:54.802Z,-3.88
2022-12-18T17:22:24.327Z,-3.90
2022-12-18T17:24:55.649Z,-3.90
2022-12-18T17:27:24.006Z,-3.91
2022-12-18T17:29:54.732Z,-3.79
2022-12-18T17:32:23.233Z,-3.87
2022-12-18T17:34:51.773Z,-3.83
2022-12-18T17:37:20.183Z,-3.78
2022-12-18T17:39:48.613Z,-3.83
2022-12-18T17:42:17.003Z,-3.84
2022-12-18T17:44:55.341Z,-3.83
2022-12-18T17:47:24.022Z,-3.73
2022-12-18T17:49:52.612Z,-3.66
2022-12-18T17:52:22.283Z,-3.64
2022-12-18T17:54:50.733Z,-3.55
2022-12-18T17:57:19.230Z,-3.51
2022-12-18T18:02:39.963Z,-3.42
2022-12-18T18:05:08.761Z,-3.40
2022-12-18T18:07:40.129Z,-3.36
2022-12-18T18:10:09.056Z,-3.36
2022-12-18T18:12:56.331Z,-3.28
2022-12-18T18:15:24.767Z,-3.19
2022-12-18T18:17:53.225Z,-3.12
2022-12-18T18:20:22.989Z,-3.07
2022-12-18T18:22:51.595Z,-3.03
2022-12-18T18:25:19.989Z,-2.99
2022-12-18T18:27:48.863Z,-2.98
2022-12-18T18:30:24.036Z,-2.96
2022-12-18T18:32:52.812Z,-2.98
2022-12-18T18:35:52.230Z,-3.02
2022-12-18T18:38:10.760Z,-3.02
2022-12-18T18:40:39.125Z,-2.96
2022-12-18T18:43:07.712Z,-3.02
2022-12-18T18:45:36.302Z,-3.00
2022-12-18T18:48:04.774Z,-2.99
2022-12-18T18:50:33.638Z,-2.90
2022-12-18T18:53:02.125Z,-2.85
2022-12-18T18:55:31.018Z,-2.93
2022-12-18T18:57:59.453Z,-2.98
2022-12-18T19:00:29.280Z,-2.97
2022-12-18T19:03:00.768Z,-2.93
2022-12-18T19:05:29.441Z,-2.86
2022-12-18T19:08:02.087Z,-2.90
2022-12-18T19:10:30.513Z,-2.86
2022-12-18T19:13:16.216Z,-2.98
2022-12-18T19:15:45.938Z,-2.94
2022-12-18T19:18:14.622Z,-3.00
2022-12-18T19:20:43.285Z,-3.00
2022-12-18T19:23:12.149Z,-3.00
2022-12-18T19:25:41.753Z,-3.00
2022-12-18T19:28:21.960Z,-3.06
2022-12-18T19:30:56.379Z,-3.01
2022-12-18T19:33:44.414Z,-3.07
2022-12-18T19:36:40.114Z,-3.00
2022-12-18T19:39:16.237Z,-2.95
2022-12-18T19:41:45.040Z,-2.92
2022-12-18T19:44:15.681Z,-2.96
2022-12-18T19:46:44.515Z,-2.94
2022-12-18T19:49:17.336Z,-2.91
2022-12-18T19:51:46.733Z,-2.91
2022-12-18T19:54:17.516Z,-2.90
2022-12-18T19:56:46.681Z,-2.86
2022-12-18T19:59:21.869Z,-2.85
2022-12-18T20:01:53.525Z,-2.82
2022-12-18T20:04:22.149Z,-2.76
2022-12-18T20:06:53.307Z,-2.78
2022-12-18T20:09:22.810Z,-2.72
2022-12-18T20:11:52.327Z,-2.69
2022-12-18T20:14:23.456Z,-2.63
2022-12-18T20:16:57.952Z,-2.56
2022-12-18T20:19:28.764Z,-2.53
2022-12-18T20:21:57.591Z,-2.58
2022-12-18T20:24:27.070Z,-2.52
2022-12-18T20:26:56.495Z,-2.44
2022-12-18T20:29:24.980Z,-2.40
2022-12-18T20:31:53.454Z,-2.42
2022-12-18T20:34:22.077Z,-2.40
2022-12-18T20:36:51.484Z,-2.41
2022-12-18T20:39:21.020Z,-2.36
2022-12-18T20:41:51.060Z,-2.32
2022-12-18T20:44:22.990Z,-2.30
2022-12-18T20:46:59.258Z,-2.25
2022-12-18T20:49:29.653Z,-2.22
2022-12-18T20:51:59.518Z,-2.20
2022-12-18T20:54:28.925Z,-2.20
2022-12-18T20:56:58.070Z,-2.24
2022-12-18T20:59:26.997Z,-2.24
2022-12-18T21:01:55.642Z,-2.21
2022-12-18T21:04:24.921Z,-2.18
2022-12-18T21:07:01.909Z,-2.13
2022-12-18T21:09:37.173Z,-2.07
2022-12-18T21:12:41.682Z,-2.02
2022-12-18T21:15:18.675Z,-1.94
2022-12-18T21:17:47.373Z,-1.89
2022-12-18T21:20:18.061Z,-1.85
2022-12-18T21:22:49.355Z,-1.84
2022-12-18T21:25:17.997Z,-1.82
2022-12-18T21:27:46.478Z,-1.80
2022-12-18T21:30:15.292Z,-1.84
2022-12-18T21:32:44.081Z,-1.80
2022-12-18T21:35:12.671Z,-1.80
2022-12-18T21:37:40.865Z,-1.91
2022-12-18T21:40:10.112Z,-1.98
2022-12-18T21:42:55.935Z,-1.93
2022-12-18T21:45:24.610Z,-1.85
2022-12-18T21:47:53.223Z,-1.86
2022-12-18T21:50:21.632Z,-1.77
2022-12-18T21:52:50.164Z,-1.78
2022-12-18T21:55:18.572Z,-1.77
2022-12-18T21:57:46.986Z,-1.70
2022-12-18T22:00:19.135Z,-1.68
2022-12-18T22:03:05.681Z,-1.70
2022-12-18T22:05:37.974Z,-1.70
2022-12-18T22:08:07.554Z,-1.64
2022-12-18T22:10:36.485Z,-1.68
2022-12-18T22:13:06.275Z,-1.57
2022-12-18T22:15:34.853Z,-1.62
2022-12-18T22:18:03.296Z,-1.67
2022-12-18T22:20:31.672Z,-1.70
2022-12-18T22:23:04.364Z,-1.72
2022-12-18T22:25:35.248Z,-1.75
2022-12-18T22:28:23.092Z,-1.74
2022-12-18T22:30:54.880Z,-1.74
2022-12-18T22:33:27.920Z,-1.66
2022-12-18T22:35:56.505Z,-1.70
2022-12-18T22:38:24.934Z,-1.65
2022-12-18T22:40:53.349Z,-1.60
2022-12-18T22:43:22.011Z,-1.56
2022-12-18T22:45:50.470Z,-1.56
2022-12-18T22:48:19.178Z,-1.57
2022-12-18T22:50:47.578Z,-1.56
2022-12-18T22:53:17.588Z,-1.58
2022-12-18T22:55:45.986Z,-1.59
2022-12-18T22:58:14.643Z,-1.52
2022-12-18T23:00:44.626Z,-1.44
2022-12-18T23:03:13.332Z,-1.39
2022-12-18T23:05:41.879Z,-1.41
2022-12-18T23:08:10.273Z,-1.39
2022-12-18T23:10:41.620Z,-1.42
2022-12-18T23:13:10.092Z,-1.44
2022-12-18T23:15:43.575Z,-1.51
2022-12-18T23:18:12.135Z,-1.54
2022-12-18T23:20:40.769Z,-1.51
2022-12-18T23:23:10.066Z,-1.51
2022-12-18T23:25:38.507Z,-1.51
2022-12-18T23:28:07.152Z,-1.53
2022-12-18T23:30:35.561Z,-1.52
2022-12-18T23:33:03.972Z,-1.47
2022-12-18T23:35:32.601Z,-1.55
2022-12-18T23:38:01.082Z,-1.58
2022-12-18T23:40:30.447Z,-1.59
2022-12-18T23:43:00.055Z,-1.57
2022-12-18T23:45:28.592Z,-1.58
2022-12-18T23:47:57.008Z,-1.54
2022-12-18T23:50:29.451Z,-1.55
2022-12-18T23:53:02.087Z,-1.53
2022-12-18T23:55:34.961Z,-1.49
2022-12-18T23:58:03.491Z,-1.56
